sensor_id;sensor_type;location;lat;lon;timestamp;temperature;humidity
2893;DHT22;1456;51.840;12.184;2023-10-13T00:01:38;14.30;99.90
2893;DHT22;1456;51.840;12.184;2023-10-13T00:04:03;14.30;99.90
2893;DHT22;1456;51.840;12.184;2023-10-13T00:06:32;14.20;99.90
2893;DHT22;1456;51.840;12.184;2023-10-13T00:08:58;14.20;99.90
2893;DHT22;1456;51.840;12.184;2023-10-13T00:11:24;14.20;99.90
2893;DHT22;1456;51.840;12.184;2023-10-13T00:13:52;14.20;99.90
2893;DHT22;1456;51.840;12.184;2023-10-13T00:16:19;14.30;99.90
2893;DHT22;1456;51.840;12.184;2023-10-13T00:18:52;14.40;99.90
2893;DHT22;1456;51.840;12.184;2023-10-13T00:21:21;14.60;99.90
2893;DHT22;1456;51.840;12.184;2023-10-13T00:24:01;14.70;99.90
2893;DHT22;1456;51.840;12.184;2023-10-13T00:26:28;14.80;99.90
2893;DHT22;1456;51.840;12.184;2023-10-13T00:28:59;14.90;99.90
2893;DHT22;1456;51.840;12.184;2023-10-13T00:31:41;15.10;99.90
2893;DHT22;1456;51.840;12.184;2023-10-13T00:34:14;15.20;99.90
2893;DHT22;1456;51.840;12.184;2023-10-13T00:36:59;15.20;99.90
2893;DHT22;1456;51.840;12.184;2023-10-13T00:39:39;15.30;99.90
2893;DHT22;1456;51.840;12.184;2023-10-13T00:42:14;15.30;99.90
2893;DHT22;1456;51.840;12.184;2023-10-13T00:44:53;15.40;99.90
2893;DHT22;1456;51.840;12.184;2023-10-13T00:47:20;15.50;99.90
2893;DHT22;1456;51.840;12.184;2023-10-13T00:50:01;15.50;99.90
2893;DHT22;1456;51.840;12.184;2023-10-13T00:52:27;15.50;99.90
2893;DHT22;1456;51.840;12.184;2023-10-13T00:54:56;15.30;99.90
2893;DHT22;1456;51.840;12.184;2023-10-13T00:57:25;15.30;99.90
2893;DHT22;1456;51.840;12.184;2023-10-13T00:59:56;15.30;99.90
2893;DHT22;1456;51.840;12.184;2023-10-13T01:02:39;15.20;99.90
2893;DHT22;1456;51.840;12.184;2023-10-13T01:05:06;15.10;99.90
2893;DHT22;1456;51.840;12.184;2023-10-13T01:07:36;15.00;99.90
2893;DHT22;1456;51.840;12.184;2023-10-13T01:10:04;14.90;99.90
2893;DHT22;1456;51.840;12.184;2023-10-13T01:12:32;14.80;99.90
2893;DHT22;1456;51.840;12.184;2023-10-13T01:14:57;14.80;99.90
2893;DHT22;1456;51.840;12.184;2023-10-13T01:17:25;14.80;99.90
2893;DHT22;1456;51.840;12.184;2023-10-13T01:19:57;14.80;99.90
2893;DHT22;1456;51.840;12.184;2023-10-13T01:22:25;14.90;99.90
2893;DHT22;1456;51.840;12.184;2023-10-13T01:24:56;15.00;99.90
2893;DHT22;1456;51.840;12.184;2023-10-13T01:27:31;15.10;99.90
2893;DHT22;1456;51.840;12.184;2023-10-13T01:29:58;15.10;99.90
2893;DHT22;1456;51.840;12.184;2023-10-13T01:32:37;15.20;99.90
2893;DHT22;1456;51.840;12.184;2023-10-13T01:35:12;15.20;99.90
2893;DHT22;1456;51.840;12.184;2023-10-13T01:37:38;15.10;99.90
2893;DHT22;1456;51.840;12.184;2023-10-13T01:40:04;15.10;99.90
2893;DHT22;1456;51.840;12.184;2023-10-13T01:42:31;15.00;99.90
2893;DHT22;1456;51.840;12.184;2023-10-13T01:44:56;14.90;99.90
2893;DHT22;1456;51.840;12.184;2023-10-13T01:47:32;14.80;99.90
2893;DHT22;1456;51.840;12.184;2023-10-13T01:50:02;14.70;99.90
2893;DHT22;1456;51.840;12.184;2023-10-13T01:52:55;14.60;99.90
2893;DHT22;1456;51.840;12.184;2023-10-13T01:55:40;14.60;99.90
2893;DHT22;1456;51.840;12.184;2023-10-13T01:58:15;14.50;99.90
2893;DHT22;1456;51.840;12.184;2023-10-13T02:00:41;14.50;99.90
2893;DHT22;1456;51.840;12.184;2023-10-13T02:03:12;14.60;99.90
2893;DHT22;1456;51.840;12.184;2023-10-13T02:05:44;14.50;99.90
2893;DHT22;1456;51.840;12.184;2023-10-13T02:08:15;14.50;99.90
2893;DHT22;1456;51.840;12.184;2023-10-13T02:10:53;14.50;99.90
2893;DHT22;1456;51.840;12.184;2023-10-13T02:13:19;14.50;99.90
2893;DHT22;1456;51.840;12.184;2023-10-13T02:15:47;14.50;99.90
2893;DHT22;1456;51.840;12.184;2023-10-13T02:18:16;14.50;99.90
2893;DHT22;1456;51.840;12.184;2023-10-13T02:20:55;14.50;99.90
2893;DHT22;1456;51.840;12.184;2023-10-13T02:23:25;14.50;99.90
2893;DHT22;1456;51.840;12.184;2023-10-13T02:25:56;14.50;99.90
2893;DHT22;1456;51.840;12.184;2023-10-13T02:28:47;14.50;99.90
2893;DHT22;1456;51.840;12.184;2023-10-13T02:31:17;14.50;99.90
2893;DHT22;1456;51.840;12.184;2023-10-13T02:33:44;14.60;99.90
2893;DHT22;1456;51.840;12.184;2023-10-13T02:36:12;14.60;99.90
2893;DHT22;1456;51.840;12.184;2023-10-13T02:38:40;14.60;99.90
2893;DHT22;1456;51.840;12.184;2023-10-13T02:41:15;14.50;99.90
2893;DHT22;1456;51.840;12.184;2023-10-13T02:44:01;14.50;99.90
2893;DHT22;1456;51.840;12.184;2023-10-13T02:46:27;14.40;99.90
2893;DHT22;1456;51.840;12.184;2023-10-13T02:48:56;14.50;99.90
2893;DHT22;1456;51.840;12.184;2023-10-13T02:51:23;14.50;99.90
2893;DHT22;1456;51.840;12.184;2023-10-13T02:54:01;14.40;99.90
2893;DHT22;1456;51.840;12.184;2023-10-13T02:56:28;14.40;99.90
2893;DHT22;1456;51.840;12.184;2023-10-13T02:58:55;14.40;99.90
2893;DHT22;1456;51.840;12.184;2023-10-13T03:01:31;14.40;99.90
2893;DHT22;1456;51.840;12.184;2023-10-13T03:03:59;14.30;99.90
2893;DHT22;1456;51.840;12.184;2023-10-13T03:06:27;14.30;99.90
2893;DHT22;1456;51.840;12.184;2023-10-13T03:11:44;14.30;99.90
2893;DHT22;1456;51.840;12.184;2023-10-13T03:17:01;14.30;99.90
2893;DHT22;1456;51.840;12.184;2023-10-13T03:19:47;14.30;99.90
2893;DHT22;1456;51.840;12.184;2023-10-13T03:22:15;14.40;99.90
2893;DHT22;1456;51.840;12.184;2023-10-13T03:24:45;14.40;99.90
2893;DHT22;1456;51.840;12.184;2023-10-13T03:27:13;14.30;99.90
2893;DHT22;1456;51.840;12.184;2023-10-13T03:29:42;14.30;99.90
2893;DHT22;1456;51.840;12.184;2023-10-13T03:32:20;14.20;99.90
2893;DHT22;1456;51.840;12.184;2023-10-13T03:34:51;14.20;99.90
2893;DHT22;1456;51.840;12.184;2023-10-13T03:37:17;14.10;99.90
2893;DHT22;1456;51.840;12.184;2023-10-13T03:39:45;14.10;99.90
2893;DHT22;1456;51.840;12.184;2023-10-13T03:42:11;14.00;99.90
2893;DHT22;1456;51.840;12.184;2023-10-13T03:44:48;14.00;99.90
2893;DHT22;1456;51.840;12.184;2023-10-13T03:47:14;14.00;99.90
2893;DHT22;1456;51.840;12.184;2023-10-13T03:49:45;14.00;99.90
2893;DHT22;1456;51.840;12.184;2023-10-13T03:52:16;14.10;99.90
2893;DHT22;1456;51.840;12.184;2023-10-13T03:54:47;14.10;99.90
2893;DHT22;1456;51.840;12.184;2023-10-13T03:57:17;14.20;99.90
2893;DHT22;1456;51.840;12.184;2023-10-13T03:59:43;14.20;99.90
2893;DHT22;1456;51.840;12.184;2023-10-13T04:02:13;14.30;99.90
2893;DHT22;1456;51.840;12.184;2023-10-13T04:04:44;14.30;99.90
2893;DHT22;1456;51.840;12.184;2023-10-13T04:07:13;14.30;99.90
2893;DHT22;1456;51.840;12.184;2023-10-13T04:12:14;14.20;99.90
2893;DHT22;1456;51.840;12.184;2023-10-13T04:14:58;14.10;99.90
2893;DHT22;1456;51.840;12.184;2023-10-13T04:17:31;14.10;99.90
2893;DHT22;1456;51.840;12.184;2023-10-13T04:20:11;14.00;99.90
2893;DHT22;1456;51.840;12.184;2023-10-13T04:22:38;14.00;99.90
2893;DHT22;1456;51.840;12.184;2023-10-13T04:25:16;14.00;99.90
2893;DHT22;1456;51.840;12.184;2023-10-13T04:28:03;14.00;99.90
2893;DHT22;1456;51.840;12.184;2023-10-13T04:30:38;14.10;99.90
2893;DHT22;1456;51.840;12.184;2023-10-13T04:33:26;14.10;99.90
2893;DHT22;1456;51.840;12.184;2023-10-13T04:36:12;14.20;99.90
2893;DHT22;1456;51.840;12.184;2023-10-13T04:38:56;14.30;99.90
2893;DHT22;1456;51.840;12.184;2023-10-13T04:41:28;14.40;99.90
2893;DHT22;1456;51.840;12.184;2023-10-13T04:44:03;14.40;99.90
2893;DHT22;1456;51.840;12.184;2023-10-13T04:46:49;14.50;99.90
2893;DHT22;1456;51.840;12.184;2023-10-13T04:49:16;14.40;99.90
2893;DHT22;1456;51.840;12.184;2023-10-13T04:51:55;14.50;99.90
2893;DHT22;1456;51.840;12.184;2023-10-13T04:54:43;14.50;99.90
2893;DHT22;1456;51.840;12.184;2023-10-13T04:57:23;14.50;99.90
2893;DHT22;1456;51.840;12.184;2023-10-13T05:00:09;14.40;99.90
2893;DHT22;1456;51.840;12.184;2023-10-13T05:02:41;14.40;99.90
2893;DHT22;1456;51.840;12.184;2023-10-13T05:05:10;14.40;99.90
2893;DHT22;1456;51.840;12.184;2023-10-13T05:07:49;14.40;99.90
2893;DHT22;1456;51.840;12.184;2023-10-13T05:10:34;14.40;99.90
2893;DHT22;1456;51.840;12.184;2023-10-13T05:13:18;14.40;99.90
2893;DHT22;1456;51.840;12.184;2023-10-13T05:16:03;14.40;99.90
2893;DHT22;1456;51.840;12.184;2023-10-13T05:18:47;14.40;99.90
2893;DHT22;1456;51.840;12.184;2023-10-13T05:21:34;14.30;99.90
2893;DHT22;1456;51.840;12.184;2023-10-13T05:24:18;14.40;99.90
2893;DHT22;1456;51.840;12.184;2023-10-13T05:27:03;14.50;99.90
2893;DHT22;1456;51.840;12.184;2023-10-13T05:29:48;14.40;99.90
2893;DHT22;1456;51.840;12.184;2023-10-13T05:32:32;14.40;99.90
2893;DHT22;1456;51.840;12.184;2023-10-13T05:35:18;14.40;99.90
2893;DHT22;1456;51.840;12.184;2023-10-13T05:38:02;14.50;99.90
2893;DHT22;1456;51.840;12.184;2023-10-13T05:41:00;14.50;99.90
2893;DHT22;1456;51.840;12.184;2023-10-13T05:43:44;14.50;99.90
2893;DHT22;1456;51.840;12.184;2023-10-13T05:49:03;14.50;99.90
2893;DHT22;1456;51.840;12.184;2023-10-13T05:51:48;14.40;99.90
2893;DHT22;1456;51.840;12.184;2023-10-13T05:54:32;14.50;99.90
2893;DHT22;1456;51.840;12.184;2023-10-13T05:57:16;14.50;99.90
2893;DHT22;1456;51.840;12.184;2023-10-13T06:00:01;14.60;99.90
2893;DHT22;1456;51.840;12.184;2023-10-13T06:02:46;14.70;99.90
2893;DHT22;1456;51.840;12.184;2023-10-13T06:05:31;14.70;99.90
2893;DHT22;1456;51.840;12.184;2023-10-13T06:08:19;14.80;99.90
2893;DHT22;1456;51.840;12.184;2023-10-13T06:11:04;14.90;99.90
2893;DHT22;1456;51.840;12.184;2023-10-13T06:16:37;15.00;99.90
2893;DHT22;1456;51.840;12.184;2023-10-13T06:19:21;15.10;99.90
2893;DHT22;1456;51.840;12.184;2023-10-13T06:22:05;15.20;99.90
2893;DHT22;1456;51.840;12.184;2023-10-13T06:24:50;15.30;99.90
2893;DHT22;1456;51.840;12.184;2023-10-13T06:27:34;15.20;99.90
2893;DHT22;1456;51.840;12.184;2023-10-13T06:30:35;15.30;99.90
2893;DHT22;1456;51.840;12.184;2023-10-13T06:33:00;15.30;99.90
2893;DHT22;1456;51.840;12.184;2023-10-13T06:35:29;15.40;99.90
2893;DHT22;1456;51.840;12.184;2023-10-13T06:37:57;15.40;99.90
2893;DHT22;1456;51.840;12.184;2023-10-13T06:40:25;15.50;99.90
2893;DHT22;1456;51.840;12.184;2023-10-13T06:42:52;15.50;99.90
2893;DHT22;1456;51.840;12.184;2023-10-13T06:45:36;15.60;99.90
2893;DHT22;1456;51.840;12.184;2023-10-13T06:48:02;15.60;99.90
2893;DHT22;1456;51.840;12.184;2023-10-13T06:50:30;15.70;99.90
2893;DHT22;1456;51.840;12.184;2023-10-13T06:53:04;15.80;99.90
2893;DHT22;1456;51.840;12.184;2023-10-13T06:55:30;15.90;99.90
2893;DHT22;1456;51.840;12.184;2023-10-13T06:58:03;15.90;99.90
2893;DHT22;1456;51.840;12.184;2023-10-13T07:00:32;16.00;99.90
2893;DHT22;1456;51.840;12.184;2023-10-13T07:03:06;16.20;99.90
2893;DHT22;1456;51.840;12.184;2023-10-13T07:05:36;16.40;99.90
2893;DHT22;1456;51.840;12.184;2023-10-13T07:08:04;16.40;99.90
2893;DHT22;1456;51.840;12.184;2023-10-13T07:10:30;16.50;99.90
2893;DHT22;1456;51.840;12.184;2023-10-13T07:12:55;16.60;99.90
2893;DHT22;1456;51.840;12.184;2023-10-13T07:15:25;16.70;99.90
2893;DHT22;1456;51.840;12.184;2023-10-13T07:17:54;16.60;99.90
2893;DHT22;1456;51.840;12.184;2023-10-13T07:20:25;16.60;99.90
2893;DHT22;1456;51.840;12.184;2023-10-13T07:22:54;16.50;99.90
2893;DHT22;1456;51.840;12.184;2023-10-13T07:25:28;16.50;99.90
2893;DHT22;1456;51.840;12.184;2023-10-13T07:28:01;16.50;99.90
2893;DHT22;1456;51.840;12.184;2023-10-13T07:30:26;16.50;99.90
2893;DHT22;1456;51.840;12.184;2023-10-13T07:32:53;16.50;99.90
2893;DHT22;1456;51.840;12.184;2023-10-13T07:35:20;16.50;99.90
2893;DHT22;1456;51.840;12.184;2023-10-13T07:37:49;16.50;99.90
2893;DHT22;1456;51.840;12.184;2023-10-13T07:40:18;16.60;99.90
2893;DHT22;1456;51.840;12.184;2023-10-13T07:42:50;16.60;99.90
2893;DHT22;1456;51.840;12.184;2023-10-13T07:45:17;16.70;99.90
2893;DHT22;1456;51.840;12.184;2023-10-13T07:47:51;16.80;99.90
2893;DHT22;1456;51.840;12.184;2023-10-13T07:50:17;16.80;99.90
2893;DHT22;1456;51.840;12.184;2023-10-13T07:52:50;16.80;99.90
2893;DHT22;1456;51.840;12.184;2023-10-13T07:55:33;16.80;99.90
2893;DHT22;1456;51.840;12.184;2023-10-13T07:57:59;16.90;99.90
2893;DHT22;1456;51.840;12.184;2023-10-13T08:00:26;17.00;99.90
2893;DHT22;1456;51.840;12.184;2023-10-13T08:03:03;17.10;99.90
2893;DHT22;1456;51.840;12.184;2023-10-13T08:05:43;17.20;99.90
2893;DHT22;1456;51.840;12.184;2023-10-13T08:08:27;17.10;99.90
2893;DHT22;1456;51.840;12.184;2023-10-13T08:11:01;17.10;99.90
2893;DHT22;1456;51.840;12.184;2023-10-13T08:13:35;17.00;99.90
2893;DHT22;1456;51.840;12.184;2023-10-13T08:16:02;17.10;99.90
2893;DHT22;1456;51.840;12.184;2023-10-13T08:18:35;17.10;99.90
2893;DHT22;1456;51.840;12.184;2023-10-13T08:21:02;17.10;99.90
2893;DHT22;1456;51.840;12.184;2023-10-13T08:23:31;17.00;99.90
2893;DHT22;1456;51.840;12.184;2023-10-13T08:26:24;17.00;99.90
2893;DHT22;1456;51.840;12.184;2023-10-13T08:29:16;17.10;99.90
2893;DHT22;1456;51.840;12.184;2023-10-13T08:31:48;17.10;99.90
2893;DHT22;1456;51.840;12.184;2023-10-13T08:34:33;17.20;99.90
2893;DHT22;1456;51.840;12.184;2023-10-13T08:37:25;17.20;99.90
2893;DHT22;1456;51.840;12.184;2023-10-13T08:39:52;17.20;99.90
2893;DHT22;1456;51.840;12.184;2023-10-13T08:42:34;17.30;99.90
2893;DHT22;1456;51.840;12.184;2023-10-13T08:45:19;17.40;99.90
2893;DHT22;1456;51.840;12.184;2023-10-13T08:47:49;17.50;99.90
2893;DHT22;1456;51.840;12.184;2023-10-13T08:50:43;17.70;99.90
2893;DHT22;1456;51.840;12.184;2023-10-13T08:53:15;17.80;99.90
2893;DHT22;1456;51.840;12.184;2023-10-13T08:56:02;17.80;99.90
2893;DHT22;1456;51.840;12.184;2023-10-13T08:58:29;17.80;99.90
2893;DHT22;1456;51.840;12.184;2023-10-13T09:01:15;17.90;99.90
2893;DHT22;1456;51.840;12.184;2023-10-13T09:04:00;17.90;99.90
2893;DHT22;1456;51.840;12.184;2023-10-13T09:06:47;17.80;99.90
2893;DHT22;1456;51.840;12.184;2023-10-13T09:09:26;17.90;99.90
2893;DHT22;1456;51.840;12.184;2023-10-13T09:11:55;17.90;99.90
2893;DHT22;1456;51.840;12.184;2023-10-13T09:14:41;18.00;99.90
2893;DHT22;1456;51.840;12.184;2023-10-13T09:17:11;17.80;99.90
2893;DHT22;1456;51.840;12.184;2023-10-13T09:19:48;17.70;99.90
2893;DHT22;1456;51.840;12.184;2023-10-13T09:22:23;17.60;99.90
2893;DHT22;1456;51.840;12.184;2023-10-13T09:25:02;17.50;99.90
2893;DHT22;1456;51.840;12.184;2023-10-13T09:27:29;17.50;99.90
2893;DHT22;1456;51.840;12.184;2023-10-13T09:30:01;17.50;99.90
2893;DHT22;1456;51.840;12.184;2023-10-13T09:32:44;17.40;99.90
2893;DHT22;1456;51.840;12.184;2023-10-13T09:35:18;17.30;99.90
2893;DHT22;1456;51.840;12.184;2023-10-13T09:37:45;17.40;99.90
2893;DHT22;1456;51.840;12.184;2023-10-13T09:40:16;17.50;99.90
2893;DHT22;1456;51.840;12.184;2023-10-13T09:42:58;17.50;99.90
2893;DHT22;1456;51.840;12.184;2023-10-13T09:45:28;17.60;99.90
2893;DHT22;1456;51.840;12.184;2023-10-13T09:48:01;17.50;99.90
2893;DHT22;1456;51.840;12.184;2023-10-13T09:50:35;17.40;99.90
2893;DHT22;1456;51.840;12.184;2023-10-13T09:53:03;17.40;99.90
2893;DHT22;1456;51.840;12.184;2023-10-13T09:55:35;17.40;99.90
2893;DHT22;1456;51.840;12.184;2023-10-13T09:58:06;17.40;99.90
2893;DHT22;1456;51.840;12.184;2023-10-13T10:00:37;17.30;99.90
2893;DHT22;1456;51.840;12.184;2023-10-13T10:03:31;17.40;99.90
2893;DHT22;1456;51.840;12.184;2023-10-13T10:06:00;17.40;99.90
2893;DHT22;1456;51.840;12.184;2023-10-13T10:08:30;17.50;99.90
2893;DHT22;1456;51.840;12.184;2023-10-13T10:13:35;17.50;99.90
2893;DHT22;1456;51.840;12.184;2023-10-13T10:16:08;17.60;99.90
2893;DHT22;1456;51.840;12.184;2023-10-13T10:18:40;17.60;99.90
2893;DHT22;1456;51.840;12.184;2023-10-13T10:21:07;17.70;99.90
2893;DHT22;1456;51.840;12.184;2023-10-13T10:23:33;17.70;99.90
2893;DHT22;1456;51.840;12.184;2023-10-13T10:26:13;17.80;99.90
2893;DHT22;1456;51.840;12.184;2023-10-13T10:28:41;17.80;99.90
2893;DHT22;1456;51.840;12.184;2023-10-13T10:31:08;17.80;99.90
2893;DHT22;1456;51.840;12.184;2023-10-13T10:33:38;17.80;99.90
2893;DHT22;1456;51.840;12.184;2023-10-13T10:36:04;17.90;99.90
2893;DHT22;1456;51.840;12.184;2023-10-13T10:38:30;18.10;99.90
2893;DHT22;1456;51.840;12.184;2023-10-13T10:41:05;18.40;99.90
2893;DHT22;1456;51.840;12.184;2023-10-13T10:46:12;19.00;99.90
2893;DHT22;1456;51.840;12.184;2023-10-13T10:48:38;19.10;99.90
2893;DHT22;1456;51.840;12.184;2023-10-13T10:51:17;19.30;99.90
2893;DHT22;1456;51.840;12.184;2023-10-13T10:53:50;19.40;99.90
2893;DHT22;1456;51.840;12.184;2023-10-13T10:56:25;19.40;99.90
2893;DHT22;1456;51.840;12.184;2023-10-13T10:59:02;19.80;99.90
2893;DHT22;1456;51.840;12.184;2023-10-13T11:01:30;19.80;99.90
2893;DHT22;1456;51.840;12.184;2023-10-13T11:04:13;19.90;99.90
2893;DHT22;1456;51.840;12.184;2023-10-13T11:06:51;20.00;99.90
2893;DHT22;1456;51.840;12.184;2023-10-13T11:09:38;20.20;99.90
2893;DHT22;1456;51.840;12.184;2023-10-13T11:12:14;20.50;99.90
2893;DHT22;1456;51.840;12.184;2023-10-13T11:14:42;20.70;99.90
2893;DHT22;1456;51.840;12.184;2023-10-13T11:17:08;20.90;99.90
2893;DHT22;1456;51.840;12.184;2023-10-13T11:19:44;21.00;99.90
2893;DHT22;1456;51.840;12.184;2023-10-13T11:22:10;21.10;99.90
2893;DHT22;1456;51.840;12.184;2023-10-13T11:24:39;21.00;99.90
2893;DHT22;1456;51.840;12.184;2023-10-13T11:27:13;21.00;99.90
2893;DHT22;1456;51.840;12.184;2023-10-13T11:29:41;21.00;99.90
2893;DHT22;1456;51.840;12.184;2023-10-13T11:32:07;20.90;99.90
2893;DHT22;1456;51.840;12.184;2023-10-13T11:34:34;20.90;99.90
2893;DHT22;1456;51.840;12.184;2023-10-13T11:37:06;21.10;99.90
2893;DHT22;1456;51.840;12.184;2023-10-13T11:39:58;21.20;99.90
2893;DHT22;1456;51.840;12.184;2023-10-13T11:42:24;21.30;99.90
2893;DHT22;1456;51.840;12.184;2023-10-13T11:44:52;21.30;99.90
2893;DHT22;1456;51.840;12.184;2023-10-13T11:47:37;21.40;99.90
2893;DHT22;1456;51.840;12.184;2023-10-13T11:50:25;21.50;99.90
2893;DHT22;1456;51.840;12.184;2023-10-13T11:53:12;21.70;99.90
2893;DHT22;1456;51.840;12.184;2023-10-13T11:55:38;21.80;99.90
2893;DHT22;1456;51.840;12.184;2023-10-13T11:58:04;22.10;99.90
2893;DHT22;1456;51.840;12.184;2023-10-13T12:00:31;22.40;99.90
2893;DHT22;1456;51.840;12.184;2023-10-13T12:03:15;22.70;99.90
2893;DHT22;1456;51.840;12.184;2023-10-13T12:06:00;23.00;99.90
2893;DHT22;1456;51.840;12.184;2023-10-13T12:08:44;23.30;99.90
2893;DHT22;1456;51.840;12.184;2023-10-13T12:11:15;24.20;99.90
2893;DHT22;1456;51.840;12.184;2023-10-13T12:13:56;24.40;99.90
2893;DHT22;1456;51.840;12.184;2023-10-13T12:16:22;24.20;99.90
2893;DHT22;1456;51.840;12.184;2023-10-13T12:18:47;23.50;99.90
2893;DHT22;1456;51.840;12.184;2023-10-13T12:21:21;23.40;99.90
2893;DHT22;1456;51.840;12.184;2023-10-13T12:23:47;23.60;99.90
2893;DHT22;1456;51.840;12.184;2023-10-13T12:26:13;23.80;99.90
2893;DHT22;1456;51.840;12.184;2023-10-13T12:28:46;23.50;99.90
2893;DHT22;1456;51.840;12.184;2023-10-13T12:31:17;23.30;99.90
2893;DHT22;1456;51.840;12.184;2023-10-13T12:33:44;23.30;99.90
2893;DHT22;1456;51.840;12.184;2023-10-13T12:36:12;23.30;99.90
2893;DHT22;1456;51.840;12.184;2023-10-13T12:38:47;23.00;99.90
2893;DHT22;1456;51.840;12.184;2023-10-13T12:41:19;22.90;99.90
2893;DHT22;1456;51.840;12.184;2023-10-13T12:44:04;22.70;99.90
2893;DHT22;1456;51.840;12.184;2023-10-13T12:46:48;22.30;99.90
2893;DHT22;1456;51.840;12.184;2023-10-13T12:49:35;22.30;99.90
2893;DHT22;1456;51.840;12.184;2023-10-13T12:52:04;22.30;99.90
2893;DHT22;1456;51.840;12.184;2023-10-13T12:54:30;22.30;99.90
2893;DHT22;1456;51.840;12.184;2023-10-13T12:57:04;22.20;99.90
2893;DHT22;1456;51.840;12.184;2023-10-13T12:59:34;22.10;99.90
2893;DHT22;1456;51.840;12.184;2023-10-13T13:02:00;22.30;99.90
2893;DHT22;1456;51.840;12.184;2023-10-13T13:04:32;22.10;99.90
2893;DHT22;1456;51.840;12.184;2023-10-13T13:07:02;22.10;99.90
2893;DHT22;1456;51.840;12.184;2023-10-13T13:09:29;22.00;99.90
2893;DHT22;1456;51.840;12.184;2023-10-13T13:11:56;22.10;99.90
2893;DHT22;1456;51.840;12.184;2023-10-13T13:14:25;22.40;99.90
2893;DHT22;1456;51.840;12.184;2023-10-13T13:17:00;22.50;99.90
2893;DHT22;1456;51.840;12.184;2023-10-13T13:19:35;22.40;99.90
2893;DHT22;1456;51.840;12.184;2023-10-13T13:22:07;22.30;99.90
2893;DHT22;1456;51.840;12.184;2023-10-13T13:24:46;22.30;99.90
2893;DHT22;1456;51.840;12.184;2023-10-13T13:27:16;22.10;99.90
2893;DHT22;1456;51.840;12.184;2023-10-13T13:29:45;22.00;99.90
2893;DHT22;1456;51.840;12.184;2023-10-13T13:32:11;22.10;99.90
2893;DHT22;1456;51.840;12.184;2023-10-13T13:34:44;22.20;99.90
2893;DHT22;1456;51.840;12.184;2023-10-13T13:37:11;22.10;99.90
2893;DHT22;1456;51.840;12.184;2023-10-13T13:39:38;22.20;99.90
2893;DHT22;1456;51.840;12.184;2023-10-13T13:42:11;22.20;99.90
2893;DHT22;1456;51.840;12.184;2023-10-13T13:44:46;22.00;99.90
2893;DHT22;1456;51.840;12.184;2023-10-13T13:47:14;21.90;99.90
2893;DHT22;1456;51.840;12.184;2023-10-13T13:49:40;21.80;99.90
2893;DHT22;1456;51.840;12.184;2023-10-13T13:52:06;21.80;99.90
2893;DHT22;1456;51.840;12.184;2023-10-13T13:54:32;21.80;99.90
2893;DHT22;1456;51.840;12.184;2023-10-13T13:56:57;21.90;99.90
2893;DHT22;1456;51.840;12.184;2023-10-13T13:59:23;22.00;99.90
2893;DHT22;1456;51.840;12.184;2023-10-13T14:01:49;22.00;99.90
2893;DHT22;1456;51.840;12.184;2023-10-13T14:04:16;22.10;99.90
2893;DHT22;1456;51.840;12.184;2023-10-13T14:06:43;22.20;99.90
2893;DHT22;1456;51.840;12.184;2023-10-13T14:09:10;22.20;99.90
2893;DHT22;1456;51.840;12.184;2023-10-13T14:12:01;22.30;99.90
2893;DHT22;1456;51.840;12.184;2023-10-13T14:14:45;22.30;99.90
2893;DHT22;1456;51.840;12.184;2023-10-13T14:17:21;22.30;99.90
2893;DHT22;1456;51.840;12.184;2023-10-13T14:19:57;22.50;99.90
2893;DHT22;1456;51.840;12.184;2023-10-13T14:22:24;22.70;99.90
2893;DHT22;1456;51.840;12.184;2023-10-13T14:24:50;22.80;99.90
2893;DHT22;1456;51.840;12.184;2023-10-13T14:27:20;22.70;99.90
2893;DHT22;1456;51.840;12.184;2023-10-13T14:29:48;22.70;99.90
2893;DHT22;1456;51.840;12.184;2023-10-13T14:32:18;22.60;99.90
2893;DHT22;1456;51.840;12.184;2023-10-13T14:34:47;22.60;99.90
2893;DHT22;1456;51.840;12.184;2023-10-13T14:37:20;22.60;99.90
2893;DHT22;1456;51.840;12.184;2023-10-13T14:39:52;22.60;99.90
2893;DHT22;1456;51.840;12.184;2023-10-13T14:42:23;22.50;99.90
2893;DHT22;1456;51.840;12.184;2023-10-13T14:44:49;22.50;99.90
2893;DHT22;1456;51.840;12.184;2023-10-13T14:47:21;22.50;99.90
2893;DHT22;1456;51.840;12.184;2023-10-13T14:49:54;22.50;99.90
2893;DHT22;1456;51.840;12.184;2023-10-13T14:52:20;22.50;99.90
2893;DHT22;1456;51.840;12.184;2023-10-13T14:54:46;22.50;99.90
2893;DHT22;1456;51.840;12.184;2023-10-13T14:57:13;22.50;99.90
2893;DHT22;1456;51.840;12.184;2023-10-13T14:59:39;22.50;99.90
2893;DHT22;1456;51.840;12.184;2023-10-13T15:02:04;22.50;99.90
2893;DHT22;1456;51.840;12.184;2023-10-13T15:04:30;22.40;99.90
2893;DHT22;1456;51.840;12.184;2023-10-13T15:07:01;22.30;99.90
2893;DHT22;1456;51.840;12.184;2023-10-13T15:09:28;22.40;99.90
2893;DHT22;1456;51.840;12.184;2023-10-13T15:11:53;22.30;99.90
2893;DHT22;1456;51.840;12.184;2023-10-13T15:14:19;22.30;99.90
2893;DHT22;1456;51.840;12.184;2023-10-13T15:16:45;22.30;99.90
2893;DHT22;1456;51.840;12.184;2023-10-13T15:19:11;22.30;99.90
2893;DHT22;1456;51.840;12.184;2023-10-13T15:21:37;22.30;99.90
2893;DHT22;1456;51.840;12.184;2023-10-13T15:24:06;22.30;99.90
2893;DHT22;1456;51.840;12.184;2023-10-13T15:26:42;22.30;99.90
2893;DHT22;1456;51.840;12.184;2023-10-13T15:29:16;22.20;99.90
2893;DHT22;1456;51.840;12.184;2023-10-13T15:31:42;22.20;99.90
2893;DHT22;1456;51.840;12.184;2023-10-13T15:34:19;22.20;99.90
2893;DHT22;1456;51.840;12.184;2023-10-13T15:36:46;22.10;99.90
2893;DHT22;1456;51.840;12.184;2023-10-13T15:39:11;22.10;99.90
2893;DHT22;1456;51.840;12.184;2023-10-13T15:41:41;22.10;99.90
2893;DHT22;1456;51.840;12.184;2023-10-13T15:44:12;22.10;99.90
2893;DHT22;1456;51.840;12.184;2023-10-13T15:46:38;22.20;99.90
2893;DHT22;1456;51.840;12.184;2023-10-13T15:49:05;22.20;99.90
2893;DHT22;1456;51.840;12.184;2023-10-13T15:51:33;22.10;99.90
2893;DHT22;1456;51.840;12.184;2023-10-13T15:54:02;22.10;99.90
2893;DHT22;1456;51.840;12.184;2023-10-13T15:56:27;22.00;99.90
2893;DHT22;1456;51.840;12.184;2023-10-13T15:58:53;22.00;99.90
2893;DHT22;1456;51.840;12.184;2023-10-13T16:01:21;22.00;99.90
2893;DHT22;1456;51.840;12.184;2023-10-13T16:03:49;22.00;99.90
2893;DHT22;1456;51.840;12.184;2023-10-13T16:06:17;22.00;99.90
2893;DHT22;1456;51.840;12.184;2023-10-13T16:08:44;22.00;99.90
2893;DHT22;1456;51.840;12.184;2023-10-13T16:11:13;21.90;99.90
2893;DHT22;1456;51.840;12.184;2023-10-13T16:13:40;22.00;99.90
2893;DHT22;1456;51.840;12.184;2023-10-13T16:16:20;22.00;99.90
2893;DHT22;1456;51.840;12.184;2023-10-13T16:18:49;22.10;99.90
2893;DHT22;1456;51.840;12.184;2023-10-13T16:21:15;22.00;99.90
2893;DHT22;1456;51.840;12.184;2023-10-13T16:23:40;22.10;99.90
2893;DHT22;1456;51.840;12.184;2023-10-13T16:26:06;22.00;99.90
2893;DHT22;1456;51.840;12.184;2023-10-13T16:28:33;22.00;99.90
2893;DHT22;1456;51.840;12.184;2023-10-13T16:31:00;22.00;99.90
2893;DHT22;1456;51.840;12.184;2023-10-13T16:33:25;21.90;99.90
2893;DHT22;1456;51.840;12.184;2023-10-13T16:35:51;21.90;99.90
2893;DHT22;1456;51.840;12.184;2023-10-13T16:38:19;21.90;99.90
2893;DHT22;1456;51.840;12.184;2023-10-13T16:40:44;21.90;99.90